sensor_id;sensor_type;location;lat;lon;timestamp;pressure;altitude;pressure_sealevel;temperature;humidity
29045;BME280;16133;49.486;12.176;2023-09-30T00:01:45;98005.31;;;13.50;100.00
29045;BME280;16133;49.486;12.176;2023-09-30T00:04:11;98008.81;;;13.50;100.00
29045;BME280;16133;49.486;12.176;2023-09-30T00:06:36;98006.53;;;13.47;100.00
29045;BME280;16133;49.486;12.176;2023-09-30T00:09:02;98007.72;;;13.45;100.00
29045;BME280;16133;49.486;12.176;2023-09-30T00:11:28;98014.06;;;13.44;100.00
29045;BME280;16133;49.486;12.176;2023-09-30T00:13:54;98014.44;;;13.40;100.00
29045;BME280;16133;49.486;12.176;2023-09-30T00:16:19;98008.88;;;13.42;100.00
29045;BME280;16133;49.486;12.176;2023-09-30T00:18:45;98009.72;;;13.43;100.00
29045;BME280;16133;49.486;12.176;2023-09-30T00:21:11;98008.06;;;13.41;100.00
29045;BME280;16133;49.486;12.176;2023-09-30T00:23:37;98006.81;;;13.37;100.00
29045;BME280;16133;49.486;12.176;2023-09-30T00:26:03;98013.03;;;13.30;100.00
29045;BME280;16133;49.486;12.176;2023-09-30T00:28:28;98015.59;;;13.23;100.00
29045;BME280;16133;49.486;12.176;2023-09-30T00:30:54;98015.50;;;13.17;100.00
29045;BME280;16133;49.486;12.176;2023-09-30T00:33:19;98012.53;;;13.12;100.00
29045;BME280;16133;49.486;12.176;2023-09-30T00:35:45;98018.69;;;13.12;100.00
29045;BME280;16133;49.486;12.176;2023-09-30T00:38:11;98020.34;;;13.13;100.00
29045;BME280;16133;49.486;12.176;2023-09-30T00:40:36;98009.69;;;13.13;100.00
29045;BME280;16133;49.486;12.176;2023-09-30T00:43:02;98015.19;;;13.12;100.00
29045;BME280;16133;49.486;12.176;2023-09-30T00:45:28;98018.56;;;13.06;100.00
29045;BME280;16133;49.486;12.176;2023-09-30T00:47:53;98019.25;;;13.00;100.00
29045;BME280;16133;49.486;12.176;2023-09-30T00:50:19;98024.50;;;12.93;100.00
29045;BME280;16133;49.486;12.176;2023-09-30T00:52:47;98020.88;;;12.86;100.00
29045;BME280;16133;49.486;12.176;2023-09-30T00:55:14;98024.28;;;12.80;100.00
29045;BME280;16133;49.486;12.176;2023-09-30T00:57:40;98027.09;;;12.78;100.00
29045;BME280;16133;49.486;12.176;2023-09-30T01:00:07;98017.66;;;12.76;100.00
29045;BME280;16133;49.486;12.176;2023-09-30T01:02:38;98015.69;;;12.70;100.00
29045;BME280;16133;49.486;12.176;2023-09-30T01:05:03;98010.56;;;12.68;100.00
29045;BME280;16133;49.486;12.176;2023-09-30T01:07:30;97987.75;;;12.66;100.00
29045;BME280;16133;49.486;12.176;2023-09-30T01:09:55;97987.13;;;12.64;100.00
29045;BME280;16133;49.486;12.176;2023-09-30T01:12:21;97986.28;;;12.63;100.00
29045;BME280;16133;49.486;12.176;2023-09-30T01:14:46;97994.44;;;12.62;100.00
29045;BME280;16133;49.486;12.176;2023-09-30T01:17:12;97997.94;;;12.62;100.00
29045;BME280;16133;49.486;12.176;2023-09-30T01:19:42;97991.13;;;12.60;100.00
29045;BME280;16133;49.486;12.176;2023-09-30T01:22:10;97994.44;;;12.62;100.00
29045;BME280;16133;49.486;12.176;2023-09-30T01:24:40;97991.63;;;12.63;100.00
29045;BME280;16133;49.486;12.176;2023-09-30T01:27:06;97997.94;;;12.62;100.00
29045;BME280;16133;49.486;12.176;2023-09-30T01:29:32;97998.59;;;12.64;100.00
29045;BME280;16133;49.486;12.176;2023-09-30T01:31:57;98002.72;;;12.67;100.00
29045;BME280;16133;49.486;12.176;2023-09-30T01:34:23;98006.84;;;12.69;100.00
29045;BME280;16133;49.486;12.176;2023-09-30T01:36:48;98005.50;;;12.73;100.00
29045;BME280;16133;49.486;12.176;2023-09-30T01:39:14;98003.13;;;12.78;100.00
29045;BME280;16133;49.486;12.176;2023-09-30T01:41:40;98009.88;;;12.89;100.00
29045;BME280;16133;49.486;12.176;2023-09-30T01:44:06;97996.94;;;13.01;100.00
29045;BME280;16133;49.486;12.176;2023-09-30T01:46:32;98003.53;;;13.13;100.00
29045;BME280;16133;49.486;12.176;2023-09-30T01:48:57;98000.44;;;13.24;100.00
29045;BME280;16133;49.486;12.176;2023-09-30T01:51:23;98001.81;;;13.34;100.00
29045;BME280;16133;49.486;12.176;2023-09-30T01:53:48;97997.88;;;13.45;100.00
29045;BME280;16133;49.486;12.176;2023-09-30T01:56:14;98004.78;;;13.54;100.00
29045;BME280;16133;49.486;12.176;2023-09-30T01:58:39;98010.00;;;13.62;100.00
29045;BME280;16133;49.486;12.176;2023-09-30T02:01:05;98009.75;;;13.72;100.00
29045;BME280;16133;49.486;12.176;2023-09-30T02:03:30;98016.84;;;13.79;100.00
29045;BME280;16133;49.486;12.176;2023-09-30T02:05:57;98022.69;;;13.89;100.00
29045;BME280;16133;49.486;12.176;2023-09-30T02:08:23;98019.94;;;13.98;100.00
29045;BME280;16133;49.486;12.176;2023-09-30T02:10:48;98010.16;;;14.05;100.00
29045;BME280;16133;49.486;12.176;2023-09-30T02:13:16;98012.06;;;14.11;100.00
29045;BME280;16133;49.486;12.176;2023-09-30T02:15:41;98013.19;;;14.16;100.00
29045;BME280;16133;49.486;12.176;2023-09-30T02:18:06;98012.25;;;14.24;100.00
29045;BME280;16133;49.486;12.176;2023-09-30T02:20:32;98024.03;;;14.29;100.00
29045;BME280;16133;49.486;12.176;2023-09-30T02:22:59;98022.59;;;14.33;100.00
29045;BME280;16133;49.486;12.176;2023-09-30T02:25:24;98034.81;;;14.36;100.00
29045;BME280;16133;49.486;12.176;2023-09-30T02:27:50;98026.41;;;14.39;100.00
29045;BME280;16133;49.486;12.176;2023-09-30T02:30:16;98031.19;;;14.44;100.00
29045;BME280;16133;49.486;12.176;2023-09-30T02:32:42;98030.81;;;14.47;100.00
29045;BME280;16133;49.486;12.176;2023-09-30T02:35:08;98034.94;;;14.49;100.00
29045;BME280;16133;49.486;12.176;2023-09-30T02:37:36;98040.72;;;14.53;100.00
29045;BME280;16133;49.486;12.176;2023-09-30T02:40:03;98043.38;;;14.53;100.00
29045;BME280;16133;49.486;12.176;2023-09-30T02:42:30;98038.69;;;14.55;100.00
29045;BME280;16133;49.486;12.176;2023-09-30T02:44:56;98048.81;;;14.59;100.00
29045;BME280;16133;49.486;12.176;2023-09-30T02:47:21;98053.59;;;14.64;100.00
29045;BME280;16133;49.486;12.176;2023-09-30T02:49:46;98053.22;;;14.67;100.00
29045;BME280;16133;49.486;12.176;2023-09-30T02:52:12;98055.31;;;14.71;100.00
29045;BME280;16133;49.486;12.176;2023-09-30T02:54:38;98049.59;;;14.74;100.00
29045;BME280;16133;49.486;12.176;2023-09-30T02:57:03;98057.22;;;14.77;100.00
29045;BME280;16133;49.486;12.176;2023-09-30T02:59:29;98053.34;;;14.80;100.00
29045;BME280;16133;49.486;12.176;2023-09-30T03:01:54;98053.78;;;14.83;100.00
29045;BME280;16133;49.486;12.176;2023-09-30T03:04:21;98056.28;;;14.85;100.00
29045;BME280;16133;49.486;12.176;2023-09-30T03:06:51;98057.72;;;14.88;100.00
29045;BME280;16133;49.486;12.176;2023-09-30T03:09:16;98062.72;;;14.91;100.00
29045;BME280;16133;49.486;12.176;2023-09-30T03:11:43;98067.03;;;14.92;100.00
29045;BME280;16133;49.486;12.176;2023-09-30T03:14:11;98028.63;;;14.71;100.00
29045;BME280;16133;49.486;12.176;2023-09-30T03:16:39;98070.13;;;14.95;100.00
29045;BME280;16133;49.486;12.176;2023-09-30T03:19:06;98068.50;;;14.94;100.00
29045;BME280;16133;49.486;12.176;2023-09-30T03:21:34;98075.47;;;14.95;100.00
29045;BME280;16133;49.486;12.176;2023-09-30T03:24:02;98076.31;;;14.96;100.00
29045;BME280;16133;49.486;12.176;2023-09-30T03:26:31;98086.56;;;14.92;100.00
29045;BME280;16133;49.486;12.176;2023-09-30T03:28:56;98084.72;;;14.93;100.00
29045;BME280;16133;49.486;12.176;2023-09-30T03:31:22;98077.53;;;14.93;100.00
29045;BME280;16133;49.486;12.176;2023-09-30T03:33:51;98075.69;;;14.94;100.00
29045;BME280;16133;49.486;12.176;2023-09-30T03:36:22;98079.38;;;14.93;100.00
29045;BME280;16133;49.486;12.176;2023-09-30T03:38:54;98070.53;;;14.92;100.00
29045;BME280;16133;49.486;12.176;2023-09-30T03:41:25;98062.50;;;14.92;100.00
29045;BME280;16133;49.486;12.176;2023-09-30T03:43:50;98066.66;;;14.95;100.00
29045;BME280;16133;49.486;12.176;2023-09-30T03:46:16;98060.47;;;14.94;100.00
29045;BME280;16133;49.486;12.176;2023-09-30T03:48:42;98072.81;;;14.95;100.00
29045;BME280;16133;49.486;12.176;2023-09-30T03:51:13;98075.31;;;14.97;100.00
29045;BME280;16133;49.486;12.176;2023-09-30T03:53:42;98072.25;;;15.00;100.00
29045;BME280;16133;49.486;12.176;2023-09-30T03:56:07;98061.38;;;15.01;100.00
29045;BME280;16133;49.486;12.176;2023-09-30T03:58:33;98063.84;;;15.03;100.00
29045;BME280;16133;49.486;12.176;2023-09-30T04:00:59;98065.50;;;15.04;100.00
29045;BME280;16133;49.486;12.176;2023-09-30T04:03:26;98064.47;;;15.05;100.00
29045;BME280;16133;49.486;12.176;2023-09-30T04:05:52;98065.50;;;15.04;100.00
29045;BME280;16133;49.486;12.176;2023-09-30T04:08:18;98067.53;;;15.02;100.00
29045;BME280;16133;49.486;12.176;2023-09-30T04:10:43;98066.50;;;15.03;100.00
29045;BME280;16133;49.486;12.176;2023-09-30T04:13:09;98069.19;;;15.03;100.00
29045;BME280;16133;49.486;12.176;2023-09-30T04:15:34;98076.19;;;15.04;100.00
29045;BME280;16133;49.486;12.176;2023-09-30T04:18:04;98083.19;;;15.05;100.00
29045;BME280;16133;49.486;12.176;2023-09-30T04:20:32;98087.72;;;15.04;100.00
29045;BME280;16133;49.486;12.176;2023-09-30T04:22:58;98074.34;;;15.04;100.00
29045;BME280;16133;49.486;12.176;2023-09-30T04:25:24;98100.91;;;15.06;100.00
29045;BME280;16133;49.486;12.176;2023-09-30T04:27:52;98100.91;;;15.06;100.00
29045;BME280;16133;49.486;12.176;2023-09-30T04:30:18;98102.53;;;15.07;100.00
29045;BME280;16133;49.486;12.176;2023-09-30T04:32:44;98107.69;;;15.08;100.00
29045;BME280;16133;49.486;12.176;2023-09-30T04:35:10;98101.50;;;15.08;100.00
29045;BME280;16133;49.486;12.176;2023-09-30T04:37:36;98093.69;;;15.06;100.00
29045;BME280;16133;49.486;12.176;2023-09-30T04:40:05;98114.88;;;15.08;100.00
29045;BME280;16133;49.486;12.176;2023-09-30T04:42:47;98102.53;;;15.07;100.00
29045;BME280;16133;49.486;12.176;2023-09-30T04:45:13;98100.06;;;15.05;100.00
29045;BME280;16133;49.486;12.176;2023-09-30T04:47:42;98102.34;;;15.08;100.00
29045;BME280;16133;49.486;12.176;2023-09-30T04:50:10;98107.50;;;15.10;100.00
29045;BME280;16133;49.486;12.176;2023-09-30T04:52:37;98112.84;;;15.10;100.00
29045;BME280;16133;49.486;12.176;2023-09-30T04:55:02;98107.50;;;15.10;100.00
29045;BME280;16133;49.486;12.176;2023-09-30T04:57:29;98105.84;;;15.09;100.00
29045;BME280;16133;49.486;12.176;2023-09-30T04:59:55;98110.19;;;15.10;100.00
29045;BME280;16133;49.486;12.176;2023-09-30T05:02:21;98098.44;;;15.11;100.00
29045;BME280;16133;49.486;12.176;2023-09-30T05:04:46;98109.97;;;15.11;100.00
29045;BME280;16133;49.486;12.176;2023-09-30T05:07:12;98116.16;;;15.12;100.00
29045;BME280;16133;49.486;12.176;2023-09-30T05:09:38;98119.47;;;15.14;100.00
29045;BME280;16133;49.486;12.176;2023-09-30T05:12:04;98117.44;;;15.16;100.00
29045;BME280;16133;49.486;12.176;2023-09-30T05:14:30;98120.09;;;15.16;100.00
29045;BME280;16133;49.486;12.176;2023-09-30T05:16:56;98124.44;;;15.17;100.00
29045;BME280;16133;49.486;12.176;2023-09-30T05:19:22;98116.22;;;15.18;100.00
29045;BME280;16133;49.486;12.176;2023-09-30T05:21:48;98111.69;;;15.19;100.00
29045;BME280;16133;49.486;12.176;2023-09-30T05:24:14;98097.31;;;15.20;100.00
29045;BME280;16133;49.486;12.176;2023-09-30T05:26:39;98098.16;;;15.20;100.00
29045;BME280;16133;49.486;12.176;2023-09-30T05:29:05;98096.31;;;15.21;100.00
29045;BME280;16133;49.486;12.176;2023-09-30T05:31:31;98102.28;;;15.23;100.00
29045;BME280;16133;49.486;12.176;2023-09-30T05:33:57;98102.28;;;15.23;100.00
29045;BME280;16133;49.486;12.176;2023-09-30T05:36:22;98110.13;;;15.24;100.00
29045;BME280;16133;49.486;12.176;2023-09-30T05:38:48;98108.91;;;15.27;100.00
29045;BME280;16133;49.486;12.176;2023-09-30T05:41:16;98116.72;;;15.28;100.00
29045;BME280;16133;49.486;12.176;2023-09-30T05:43:41;98125.59;;;15.29;100.00
29045;BME280;16133;49.486;12.176;2023-09-30T05:46:08;98124.75;;;15.28;100.00
29045;BME280;16133;49.486;12.176;2023-09-30T05:48:34;98125.38;;;15.30;100.00
29045;BME280;16133;49.486;12.176;2023-09-30T05:50:59;98126.22;;;15.31;100.00
29045;BME280;16133;49.486;12.176;2023-09-30T05:53:24;98142.25;;;15.31;100.00
29045;BME280;16133;49.486;12.176;2023-09-30T05:55:50;98141.31;;;15.17;100.00
29045;BME280;16133;49.486;12.176;2023-09-30T05:58:16;98126.78;;;15.05;100.00
29045;BME280;16133;49.486;12.176;2023-09-30T06:00:42;98140.34;;;15.04;100.00
29045;BME280;16133;49.486;12.176;2023-09-30T06:03:08;98144.50;;;14.92;100.00
29045;BME280;16133;49.486;12.176;2023-09-30T06:05:33;98147.28;;;14.83;100.00
29045;BME280;16133;49.486;12.176;2023-09-30T06:08:03;98156.91;;;14.78;100.00
29045;BME280;16133;49.486;12.176;2023-09-30T06:10:29;98159.16;;;14.60;100.00
29045;BME280;16133;49.486;12.176;2023-09-30T06:12:56;98160.25;;;14.51;100.00
29045;BME280;16133;49.486;12.176;2023-09-30T06:15:23;98163.22;;;14.41;100.00
29045;BME280;16133;49.486;12.176;2023-09-30T06:17:51;98162.13;;;14.35;100.00
29045;BME280;16133;49.486;12.176;2023-09-30T06:20:20;98157.28;;;14.31;100.00
29045;BME280;16133;49.486;12.176;2023-09-30T06:22:48;98156.38;;;14.24;100.00
29045;BME280;16133;49.486;12.176;2023-09-30T06:25:17;98154.91;;;14.21;100.00
29045;BME280;16133;49.486;12.176;2023-09-30T06:27:44;98160.06;;;14.23;100.00
29045;BME280;16133;49.486;12.176;2023-09-30T06:30:10;98159.22;;;14.22;100.00
29045;BME280;16133;49.486;12.176;2023-09-30T06:32:36;98167.81;;;14.18;100.00
29045;BME280;16133;49.486;12.176;2023-09-30T06:35:03;98165.84;;;14.12;100.00
29045;BME280;16133;49.486;12.176;2023-09-30T06:37:31;98172.56;;;14.08;100.00
29045;BME280;16133;49.486;12.176;2023-09-30T06:39:56;98170.28;;;14.05;100.00
29045;BME280;16133;49.486;12.176;2023-09-30T06:42:22;98169.63;;;14.03;100.00
29045;BME280;16133;49.486;12.176;2023-09-30T06:44:47;98168.97;;;14.01;100.00
29045;BME280;16133;49.486;12.176;2023-09-30T06:47:12;98169.53;;;14.11;100.00
29045;BME280;16133;49.486;12.176;2023-09-30T06:49:38;98174.31;;;14.15;100.00
29045;BME280;16133;49.486;12.176;2023-09-30T06:52:04;98175.53;;;14.27;100.00
29045;BME280;16133;49.486;12.176;2023-09-30T06:54:31;98175.97;;;14.31;100.00
29045;BME280;16133;49.486;12.176;2023-09-30T06:56:56;98188.50;;;14.30;100.00
29045;BME280;16133;49.486;12.176;2023-09-30T06:59:21;98194.22;;;14.27;100.00
29045;BME280;16133;49.486;12.176;2023-09-30T07:01:47;98198.63;;;14.20;100.00
29045;BME280;16133;49.486;12.176;2023-09-30T07:04:12;98210.31;;;14.19;100.00
29045;BME280;16133;49.486;12.176;2023-09-30T07:06:38;98217.94;;;14.22;100.00
29045;BME280;16133;49.486;12.176;2023-09-30T07:09:03;98222.63;;;14.06;100.00
29045;BME280;16133;49.486;12.176;2023-09-30T07:11:30;98233.69;;;14.03;100.00
29045;BME280;16133;49.486;12.176;2023-09-30T07:13:58;98232.19;;;14.00;100.00
29045;BME280;16133;49.486;12.176;2023-09-30T07:16:24;98240.72;;;13.96;100.00
29045;BME280;16133;49.486;12.176;2023-09-30T07:18:49;98249.41;;;13.98;100.00
29045;BME280;16133;49.486;12.176;2023-09-30T07:21:15;98246.34;;;14.01;100.00
29045;BME280;16133;49.486;12.176;2023-09-30T07:23:41;98243.69;;;14.01;100.00
29045;BME280;16133;49.486;12.176;2023-09-30T07:26:06;98227.22;;;13.97;100.00
29045;BME280;16133;49.486;12.176;2023-09-30T07:28:33;98241.59;;;14.11;100.00
29045;BME280;16133;49.486;12.176;2023-09-30T07:30:58;98244.00;;;14.06;100.00
29045;BME280;16133;49.486;12.176;2023-09-30T07:33:23;98248.59;;;14.12;100.00
29045;BME280;16133;49.486;12.176;2023-09-30T07:35:49;98253.63;;;14.07;100.00
29045;BME280;16133;49.486;12.176;2023-09-30T07:38:14;98254.94;;;14.11;100.00
29045;BME280;16133;49.486;12.176;2023-09-30T07:40:40;98254.47;;;14.07;100.00
29045;BME280;16133;49.486;12.176;2023-09-30T07:43:05;98258.25;;;14.13;100.00
29045;BME280;16133;49.486;12.176;2023-09-30T07:45:31;98253.28;;;14.10;100.00
29045;BME280;16133;49.486;12.176;2023-09-30T07:47:56;98257.69;;;14.03;100.00
29045;BME280;16133;49.486;12.176;2023-09-30T07:50:23;98255.19;;;14.01;100.00
29045;BME280;16133;49.486;12.176;2023-09-30T07:52:49;98256.66;;;14.04;100.00
29045;BME280;16133;49.486;12.176;2023-09-30T07:55:15;98246.13;;;14.10;100.00
29045;BME280;16133;49.486;12.176;2023-09-30T07:57:41;98247.22;;;14.16;100.00
29045;BME280;16133;49.486;12.176;2023-09-30T08:00:08;98252.09;;;14.27;100.00
29045;BME280;16133;49.486;12.176;2023-09-30T08:02:34;98260.22;;;14.33;100.00
29045;BME280;16133;49.486;12.176;2023-09-30T08:04:59;98263.72;;;14.34;100.00
29045;BME280;16133;49.486;12.176;2023-09-30T08:07:26;98262.13;;;14.48;100.00
29045;BME280;16133;49.486;12.176;2023-09-30T08:09:51;98269.22;;;14.55;100.00
29045;BME280;16133;49.486;12.176;2023-09-30T08:12:17;98283.19;;;14.57;100.00
29045;BME280;16133;49.486;12.176;2023-09-30T08:14:42;98276.69;;;14.60;100.00
29045;BME280;16133;49.486;12.176;2023-09-30T08:17:09;98278.78;;;14.64;100.00
29045;BME280;16133;49.486;12.176;2023-09-30T08:19:35;98273.09;;;14.67;100.00
29045;BME280;16133;49.486;12.176;2023-09-30T08:22:01;98273.00;;;14.75;100.00
29045;BME280;16133;49.486;12.176;2023-09-30T08:24:31;98287.44;;;14.81;100.00
29045;BME280;16133;49.486;12.176;2023-09-30T08:26:56;98291.03;;;14.88;100.00
29045;BME280;16133;49.486;12.176;2023-09-30T08:29:22;98294.53;;;14.89;100.00
29045;BME280;16133;49.486;12.176;2023-09-30T08:31:48;98300.34;;;14.92;100.00
29045;BME280;16133;49.486;12.176;2023-09-30T08:34:15;98300.72;;;14.89;100.00
29045;BME280;16133;49.486;12.176;2023-09-30T08:36:42;98305.13;;;14.97;100.00
29045;BME280;16133;49.486;12.176;2023-09-30T08:39:07;98315.19;;;14.95;100.00
29045;BME280;16133;49.486;12.176;2023-09-30T08:41:35;98321.16;;;14.97;100.00
29045;BME280;16133;49.486;12.176;2023-09-30T08:44:02;98321.09;;;14.90;100.00
29045;BME280;16133;49.486;12.176;2023-09-30T08:46:33;98315.63;;;14.83;100.00
29045;BME280;16133;49.486;12.176;2023-09-30T08:49:04;98318.03;;;14.78;100.00
29045;BME280;16133;49.486;12.176;2023-09-30T08:51:30;98316.91;;;14.88;100.00
29045;BME280;16133;49.486;12.176;2023-09-30T08:53:57;98303.03;;;14.77;100.00
29045;BME280;16133;49.486;12.176;2023-09-30T08:56:27;98320.88;;;14.92;100.00
29045;BME280;16133;49.486;12.176;2023-09-30T08:58:57;98333.91;;;14.95;100.00
29045;BME280;16133;49.486;12.176;2023-09-30T09:01:27;98339.25;;;14.95;100.00
29045;BME280;16133;49.486;12.176;2023-09-30T09:03:53;98331.94;;;14.74;100.00
29045;BME280;16133;49.486;12.176;2023-09-30T09:06:20;98332.22;;;14.79;100.00
29045;BME280;16133;49.486;12.176;2023-09-30T09:08:46;98334.63;;;14.89;100.00
29045;BME280;16133;49.486;12.176;2023-09-30T09:11:12;98321.69;;;15.07;100.00
29045;BME280;16133;49.486;12.176;2023-09-30T09:13:57;98320.56;;;15.30;100.00
29045;BME280;16133;49.486;12.176;2023-09-30T09:16:25;98323.59;;;15.42;100.00
29045;BME280;16133;49.486;12.176;2023-09-30T09:18:51;98327.53;;;15.61;100.00
29045;BME280;16133;49.486;12.176;2023-09-30T09:21:22;98343.31;;;15.70;100.00
29045;BME280;16133;49.486;12.176;2023-09-30T09:23:50;98352.44;;;15.61;100.00
29045;BME280;16133;49.486;12.176;2023-09-30T09:26:31;98354.50;;;15.59;100.00
29045;BME280;16133;49.486;12.176;2023-09-30T09:28:58;98346.19;;;15.54;100.00
29045;BME280;16133;49.486;12.176;2023-09-30T09:31:34;98353.22;;;15.55;100.00
29045;BME280;16133;49.486;12.176;2023-09-30T09:34:01;98353.00;;;15.42;100.00
29045;BME280;16133;49.486;12.176;2023-09-30T09:36:42;98340.84;;;15.54;100.00
29045;BME280;16133;49.486;12.176;2023-09-30T09:39:08;98340.91;;;15.61;100.00
29045;BME280;16133;49.486;12.176;2023-09-30T09:41:49;98344.69;;;15.66;100.00
29045;BME280;16133;49.486;12.176;2023-09-30T09:44:17;98343.03;;;15.65;100.00
29045;BME280;16133;49.486;12.176;2023-09-30T09:46:45;98344.03;;;15.79;100.00
29045;BME280;16133;49.486;12.176;2023-09-30T09:49:12;98345.75;;;15.87;100.00
29045;BME280;16133;49.486;12.176;2023-09-30T09:51:38;98347.28;;;15.96;100.00
29045;BME280;16133;49.486;12.176;2023-09-30T09:54:05;98352.88;;;16.01;100.00
29045;BME280;16133;49.486;12.176;2023-09-30T09:56:33;98341.94;;;16.17;100.00
29045;BME280;16133;49.486;12.176;2023-09-30T09:59:01;98347.34;;;16.23;100.00
29045;BME280;16133;49.486;12.176;2023-09-30T10:01:30;98341.50;;;16.13;100.00
29045;BME280;16133;49.486;12.176;2023-09-30T10:03:56;98346.19;;;16.33;100.00
29045;BME280;16133;49.486;12.176;2023-09-30T10:06:22;98346.63;;;16.36;100.00
29045;BME280;16133;49.486;12.176;2023-09-30T10:08:49;98349.84;;;16.25;100.00
29045;BME280;16133;49.486;12.176;2023-09-30T10:11:20;98354.16;;;16.26;100.00
29045;BME280;16133;49.486;12.176;2023-09-30T10:13:55;98359.13;;;16.08;100.00
29045;BME280;16133;49.486;12.176;2023-09-30T10:21:37;98367.09;;;16.22;100.00
29045;BME280;16133;49.486;12.176;2023-09-30T10:30:17;98382.44;;;16.14;100.00
29045;BME280;16133;49.486;12.176;2023-09-30T10:40:51;98385.00;;;16.01;100.00
29045;BME280;16133;49.486;12.176;2023-09-30T10:43:33;98380.81;;;16.34;100.00
29045;BME280;16133;49.486;12.176;2023-09-30T10:46:00;98372.25;;;16.45;100.00
29045;BME280;16133;49.486;12.176;2023-09-30T10:50:51;98379.25;;;16.67;100.00
29045;BME280;16133;49.486;12.176;2023-09-30T10:53:17;98385.75;;;16.80;100.00
29045;BME280;16133;49.486;12.176;2023-09-30T10:55:45;98384.53;;;16.82;100.00
29045;BME280;16133;49.486;12.176;2023-09-30T10:58:10;98379.63;;;16.86;100.00
29045;BME280;16133;49.486;12.176;2023-09-30T11:00:36;98395.69;;;16.86;100.00
29045;BME280;16133;49.486;12.176;2023-09-30T11:03:04;98390.19;;;16.94;100.00
29045;BME280;16133;49.486;12.176;2023-09-30T11:05:31;98391.38;;;17.19;100.00
29045;BME280;16133;49.486;12.176;2023-09-30T11:08:01;98392.06;;;17.34;100.00
29045;BME280;16133;49.486;12.176;2023-09-30T11:10:28;98385.75;;;17.48;100.00
29045;BME280;16133;49.486;12.176;2023-09-30T11:12:57;98388.53;;;17.61;100.00
29045;BME280;16133;49.486;12.176;2023-09-30T11:15:23;98370.41;;;17.77;100.00
29045;BME280;16133;49.486;12.176;2023-09-30T11:17:51;98365.88;;;17.84;100.00
29045;BME280;16133;49.486;12.176;2023-09-30T11:20:17;98361.34;;;17.78;100.00
29045;BME280;16133;49.486;12.176;2023-09-30T11:22:47;98356.72;;;17.58;100.00
29045;BME280;16133;49.486;12.176;2023-09-30T11:25:17;98357.09;;;17.55;100.00
29045;BME280;16133;49.486;12.176;2023-09-30T11:27:43;98357.88;;;17.43;98.11
29045;BME280;16133;49.486;12.176;2023-09-30T11:30:09;98346.91;;;17.38;98.51
29045;BME280;16133;49.486;12.176;2023-09-30T11:32:36;98347.63;;;17.18;100.00
29045;BME280;16133;49.486;12.176;2023-09-30T11:35:25;98343.41;;;17.03;98.63
29045;BME280;16133;49.486;12.176;2023-09-30T11:37:50;98354.06;;;16.90;100.00
29045;BME280;16133;49.486;12.176;2023-09-30T11:40:17;98349.25;;;16.79;100.00
29045;BME280;16133;49.486;12.176;2023-09-30T11:43:08;98351.19;;;16.91;100.00
29045;BME280;16133;49.486;12.176;2023-09-30T11:45:34;98341.94;;;16.94;98.50
29045;BME280;16133;49.486;12.176;2023-09-30T11:47:59;98341.53;;;16.97;98.82
29045;BME280;16133;49.486;12.176;2023-09-30T11:50:24;98346.59;;;17.13;100.00
29045;BME280;16133;49.486;12.176;2023-09-30T11:52:50;98345.19;;;17.24;100.00
29045;BME280;16133;49.486;12.176;2023-09-30T11:55:15;98339.06;;;17.36;97.18
29045;BME280;16133;49.486;12.176;2023-09-30T11:57:41;98339.84;;;17.30;92.60
29045;BME280;16133;49.486;12.176;2023-09-30T12:00:08;98338.16;;;17.23;94.75
29045;BME280;16133;49.486;12.176;2023-09-30T12:02:39;98338.81;;;17.31;93.62
29045;BME280;16133;49.486;12.176;2023-09-30T12:05:06;98333.72;;;17.49;93.84
29045;BME280;16133;49.486;12.176;2023-09-30T12:07:37;98329.44;;;17.55;92.43
29045;BME280;16133;49.486;12.176;2023-09-30T12:10:02;98336.09;;;17.65;90.30
29045;BME280;16133;49.486;12.176;2023-09-30T12:12:28;98336.56;;;17.82;90.44
29045;BME280;16133;49.486;12.176;2023-09-30T12:14:53;98326.84;;;17.81;88.51
29045;BME280;16133;49.486;12.176;2023-09-30T12:17:20;98325.63;;;17.84;89.78
29045;BME280;16133;49.486;12.176;2023-09-30T12:19:47;98325.19;;;17.80;90.22
29045;BME280;16133;49.486;12.176;2023-09-30T12:22:13;98328.47;;;17.76;87.21
29045;BME280;16133;49.486;12.176;2023-09-30T12:24:39;98328.06;;;17.72;87.43
29045;BME280;16133;49.486;12.176;2023-09-30T12:27:05;98325.00;;;17.82;88.59
29045;BME280;16133;49.486;12.176;2023-09-30T12:29:31;98326.06;;;18.07;89.52
29045;BME280;16133;49.486;12.176;2023-09-30T12:31:57;98320.53;;;18.35;89.59
29045;BME280;16133;49.486;12.176;2023-09-30T12:34:22;98321.16;;;18.56;87.37
29045;BME280;16133;49.486;12.176;2023-09-30T12:36:52;98331.69;;;18.78;85.91
29045;BME280;16133;49.486;12.176;2023-09-30T12:39:17;98337.69;;;18.80;82.83
29045;BME280;16133;49.486;12.176;2023-09-30T12:41:48;98337.69;;;18.73;80.52
29045;BME280;16133;49.486;12.176;2023-09-30T12:44:14;98330.25;;;18.69;81.30
29045;BME280;16133;49.486;12.176;2023-09-30T12:46:40;98293.22;;;18.77;82.29
29045;BME280;16133;49.486;12.176;2023-09-30T12:49:06;98297.53;;;18.78;82.31
29045;BME280;16133;49.486;12.176;2023-09-30T12:51:33;98310.41;;;18.70;80.50
29045;BME280;16133;49.486;12.176;2023-09-30T12:53:59;98303.78;;;18.52;77.19
29045;BME280;16133;49.486;12.176;2023-09-30T12:56:25;98299.22;;;18.33;76.99
29045;BME280;16133;49.486;12.176;2023-09-30T12:58:51;98293.22;;;18.38;79.07
29045;BME280;16133;49.486;12.176;2023-09-30T13:01:16;98299.44;;;18.38;79.01